Airport View

Enter AWOS ICAO identifier for current METAR.

ex. KFNL

KLNL 171245Z AUTO 18005KT 3SM -SN SCT013 OVC021 00/M02 A2990 RMK AO2 T10031025

17 Nov 2019 12:45

Frequency: 119.525

Phone: 715-547-6313

Other Area AWOS: KEGV - KARV - KD25 - KRHI

TAF KRHI 171133Z 1712/1812 19007KT 5SM -SN OVC024 FM171400 19007KT 2SM -SN OVC011 FM171600 19006KT 1 1/2SM -SN BR OVC007 FM171900 21006KT 5SM -SN BR OVC006 FM172200 28003KT 6SM BR OVC010 FM180500 31003KT P6SM OVC012